createdAt,value
2017-07-21T00:00:48.718Z,28.43
2017-07-21T00:01:48.992Z,28.41
2017-07-21T00:02:48.774Z,28.43
2017-07-21T00:03:48.806Z,28.41
2017-07-21T00:04:48.206Z,28.39
2017-07-21T00:05:48.555Z,28.34
2017-07-21T00:06:48.885Z,28.46
2017-07-21T00:07:48.913Z,28.39
2017-07-21T00:08:48.953Z,28.39
2017-07-21T00:09:48.980Z,28.34
2017-07-21T00:10:49.012Z,28.41
2017-07-21T00:11:49.283Z,28.46
2017-07-21T00:12:48.765Z,28.41
2017-07-21T00:13:48.787Z,28.41
2017-07-21T00:14:48.507Z,28.36
2017-07-21T00:15:49.156Z,28.36
2017-07-21T00:16:49.439Z,28.39
2017-07-21T00:17:48.604Z,28.46
2017-07-21T00:18:49.250Z,28.34
2017-07-21T00:19:48.963Z,28.33
2017-07-21T00:20:49.024Z,28.34
2017-07-21T00:21:49.584Z,28.36
2017-07-21T00:22:48.744Z,28.34
2017-07-21T00:23:49.398Z,28.37
2017-07-21T00:24:49.110Z,28.37
2017-07-21T00:25:49.452Z,28.37
2017-07-21T00:26:48.852Z,28.34
2017-07-21T00:27:49.540Z,28.39
2017-07-21T00:28:49.542Z,28.27
2017-07-21T00:29:49.571Z,28.31
2017-07-21T00:30:49.592Z,28.36
2017-07-21T00:31:49.632Z,28.41
2017-07-21T00:32:49.038Z,28.34
2017-07-21T00:33:49.695Z,28.36
2017-07-21T00:34:49.724Z,28.27
2017-07-21T00:35:49.440Z,28.27
2017-07-21T00:36:49.465Z,28.29
2017-07-21T00:37:49.805Z,28.4
2017-07-21T00:38:49.842Z,28.29
2017-07-21T00:39:49.556Z,28.31
2017-07-21T00:40:49.593Z,28.34
2017-07-21T00:41:49.929Z,28.3
2017-07-21T00:42:49.957Z,28.33
2017-07-21T00:43:49.987Z,28.36
2017-07-21T00:44:49.701Z,28.3
2017-07-21T00:45:49.416Z,28.29
2017-07-21T00:46:49.760Z,28.29
2017-07-21T00:47:50.045Z,28.33
2017-07-21T00:48:49.525Z,28.27
2017-07-21T00:49:50.168Z,28.29
2017-07-21T00:50:50.195Z,28.31
2017-07-21T00:51:49.910Z,28.36
2017-07-21T00:52:50.191Z,28.31
2017-07-21T00:53:50.282Z,28.29
2017-07-21T00:54:50.308Z,28.29
2017-07-21T00:55:50.028Z,28.27
2017-07-21T00:56:50.365Z,28.29
2017-07-21T00:57:50.694Z,28.31
2017-07-21T00:58:49.799Z,28.29
2017-07-21T00:59:50.455Z,28.33
2017-07-21T01:00:50.489Z,28.27
2017-07-21T01:01:50.514Z,28.27
2017-07-21T01:02:50.485Z,28.24
2017-07-21T01:03:50.578Z,28.27
2017-07-21T01:04:50.600Z,28.27
2017-07-21T01:05:50.644Z,28.22
2017-07-21T01:06:50.354Z,28.22
2017-07-21T01:07:50.949Z,28.24
2017-07-21T01:08:50.723Z,28.24
2017-07-21T01:09:50.752Z,28.24
2017-07-21T01:10:50.472Z,28.22
2017-07-21T01:11:50.800Z,28.21
2017-07-21T01:12:50.854Z,28.21
2017-07-21T01:13:50.559Z,28.21
2017-07-21T01:14:50.904Z,28.22
2017-07-21T01:15:50.928Z,28.22
2017-07-21T01:16:50.953Z,28.18
2017-07-21T01:17:50.930Z,28.25
2017-07-21T01:18:51.021Z,28.21
2017-07-21T01:19:50.736Z,28.24
2017-07-21T01:20:50.454Z,28.22
2017-07-21T01:21:50.798Z,28.18
2017-07-21T01:22:51.075Z,28.24
2017-07-21T01:23:50.856Z,28.24
2017-07-21T01:24:50.572Z,28.21
2017-07-21T01:25:51.218Z,28.22
2017-07-21T01:26:50.982Z,28.22
2017-07-21T01:27:51.535Z,28.21
2017-07-21T01:28:51.320Z,28.22
2017-07-21T01:29:51.341Z,28.24
2017-07-21T01:30:51.062Z,28.22
2017-07-21T01:31:51.090Z,28.24
2017-07-21T01:32:51.111Z,28.24
2017-07-21T01:33:51.462Z,28.24
2017-07-21T01:34:51.484Z,28.22
2017-07-21T01:35:51.211Z,28.19
2017-07-21T01:36:51.234Z,28.22
2017-07-21T01:37:51.831Z,28.24
2017-07-21T01:38:51.607Z,28.24
2017-07-21T01:39:51.325Z,28.18
2017-07-21T01:40:51.354Z,28.22
2017-07-21T01:41:51.386Z,28.24
2017-07-21T01:42:51.403Z,28.17
2017-07-21T01:43:51.751Z,28.19
2017-07-21T01:44:51.780Z,28.11
2017-07-21T01:45:51.817Z,28.14
2017-07-21T01:46:51.844Z,28.14
2017-07-21T01:47:52.131Z,28.15
2017-07-21T01:48:51.901Z,28.12
2017-07-21T01:49:51.933Z,28.09
2017-07-21T01:50:51.962Z,28.12
2017-07-21T01:51:51.682Z,28.15
2017-07-21T01:52:51.650Z,28.11
2017-07-21T01:53:52.040Z,28.09
2017-07-21T01:54:51.776Z,28.06
2017-07-21T01:55:52.110Z,28.14
2017-07-21T01:56:52.130Z,28.17
2017-07-21T01:57:52.415Z,28.03
2017-07-21T01:58:51.895Z,28.17
2017-07-21T01:59:52.234Z,28.12
2017-07-21T02:00:51.939Z,28.03
2017-07-21T02:01:51.972Z,28.09
2017-07-21T02:02:51.995Z,28.09
2017-07-21T02:03:52.032Z,28.07
2017-07-21T02:04:52.381Z,28.06
2017-07-21T02:05:52.402Z,28.07
2017-07-21T02:06:52.135Z,28.07
2017-07-21T02:07:52.155Z,28.09
2017-07-21T02:08:52.185Z,28.04
2017-07-21T02:09:52.522Z,28.06
2017-07-21T02:10:52.546Z,28.04
2017-07-21T02:11:52.260Z,28.12
2017-07-21T02:12:51.988Z,28.04
2017-07-21T02:13:52.641Z,28.09
2017-07-21T02:14:52.042Z,28.03
2017-07-21T02:15:52.391Z,28.06
2017-07-21T02:16:52.726Z,28.03
2017-07-21T02:17:52.452Z,28.04
2017-07-21T02:18:52.785Z,28.11
2017-07-21T02:19:52.502Z,28.04
2017-07-21T02:20:52.535Z,28.06
2017-07-21T02:21:52.564Z,28.14
2017-07-21T02:22:52.593Z,28.06
2017-07-21T02:23:52.929Z,28.06
2017-07-21T02:24:52.650Z,28.11
2017-07-21T02:25:52.676Z,28.09
2017-07-21T02:26:52.712Z,28.11
2017-07-21T02:27:53.065Z,28.03
2017-07-21T02:28:53.081Z,28.03
2017-07-21T02:29:53.105Z,28.07
2017-07-21T02:30:53.139Z,28.06
2017-07-21T02:31:52.856Z,28.04
2017-07-21T02:32:53.197Z,28.03
2017-07-21T02:33:52.926Z,28.04
2017-07-21T02:34:52.938Z,28.07
2017-07-21T02:35:53.286Z,28.07
2017-07-21T02:36:53.008Z,28
2017-07-21T02:37:53.033Z,28.03
2017-07-21T02:38:53.374Z,27.97
2017-07-21T02:39:53.102Z,28.07
2017-07-21T02:40:53.128Z,27.97
2017-07-21T02:41:53.461Z,28.07
2017-07-21T02:42:53.495Z,27.99
2017-07-21T02:43:53.206Z,28.02
2017-07-21T02:44:53.553Z,27.99
2017-07-21T02:45:53.272Z,27.99
2017-07-21T02:46:53.615Z,27.99
2017-07-21T02:47:53.328Z,27.99
2017-07-21T02:48:53.966Z,27.92
2017-07-21T02:49:53.389Z,27.87
2017-07-21T02:50:53.732Z,27.85
2017-07-21T02:51:53.757Z,27.9
2017-07-21T02:52:53.480Z,27.87
2017-07-21T02:53:53.749Z,27.85
2017-07-21T02:54:53.848Z,27.84
2017-07-21T02:55:53.566Z,27.92
2017-07-21T02:56:53.901Z,27.96
2017-07-21T02:57:53.621Z,27.87
2017-07-21T02:58:53.902Z,27.93
2017-07-21T02:59:53.371Z,27.9
2017-07-21T03:00:54.020Z,27.87
2017-07-21T03:01:53.741Z,27.87
2017-07-21T03:02:53.762Z,27.96
2017-07-21T03:03:54.363Z,27.87
2017-07-21T03:04:54.139Z,27.92
2017-07-21T03:05:53.861Z,27.92
2017-07-21T03:06:53.885Z,27.84
2017-07-21T03:07:54.226Z,27.88
2017-07-21T03:08:54.238Z,27.9
2017-07-21T03:09:54.284Z,27.88
2017-07-21T03:10:54.314Z,27.88
2017-07-21T03:11:54.029Z,27.81
2017-07-21T03:12:53.748Z,27.87
2017-07-21T03:13:54.343Z,27.87
2017-07-21T03:14:53.808Z,27.85
2017-07-21T03:15:53.842Z,27.82
2017-07-21T03:16:54.488Z,27.81
2017-07-21T03:17:54.534Z,27.87
2017-07-21T03:18:54.791Z,27.84
2017-07-21T03:19:53.987Z,27.79
2017-07-21T03:20:54.608Z,27.85
2017-07-21T03:21:54.325Z,27.78
2017-07-21T03:22:54.354Z,27.77
2017-07-21T03:23:54.939Z,27.84
2017-07-21T03:24:54.095Z,27.82
2017-07-21T03:25:54.440Z,27.74
2017-07-21T03:26:54.465Z,27.81
2017-07-21T03:27:54.816Z,27.72
2017-07-21T03:28:55.139Z,27.78
2017-07-21T03:29:54.872Z,27.84
2017-07-21T03:30:54.596Z,27.74
2017-07-21T03:31:54.931Z,27.75
2017-07-21T03:32:54.954Z,27.77
2017-07-21T03:33:54.984Z,27.81
2017-07-21T03:34:54.392Z,27.82
2017-07-21T03:35:55.041Z,27.87
2017-07-21T03:36:54.757Z,27.74
2017-07-21T03:37:54.490Z,27.74
2017-07-21T03:38:55.079Z,27.81
2017-07-21T03:39:55.161Z,27.79
2017-07-21T03:40:55.193Z,27.81
2017-07-21T03:41:54.912Z,27.82
2017-07-21T03:42:54.938Z,27.82
2017-07-21T03:43:55.263Z,27.87
2017-07-21T03:44:55.036Z,27.82
2017-07-21T03:45:55.336Z,27.79
2017-07-21T03:46:55.054Z,27.82
2017-07-21T03:47:54.771Z,27.79
2017-07-21T03:48:55.679Z,27.78
2017-07-21T03:49:55.145Z,27.75
2017-07-21T03:50:55.174Z,27.74
2017-07-21T03:51:55.539Z,27.75
2017-07-21T03:52:55.234Z,27.75
2017-07-21T03:53:55.863Z,27.79
2017-07-21T03:54:55.289Z,27.77
2017-07-21T03:55:55.321Z,27.78
2017-07-21T03:56:55.349Z,27.74
2017-07-21T03:57:55.378Z,27.72
2017-07-21T03:58:55.664Z,27.75
2017-07-21T03:59:55.764Z,27.74
2017-07-21T04:00:55.781Z,27.69
2017-07-21T04:01:55.823Z,27.7
2017-07-21T04:02:55.526Z,27.78
2017-07-21T04:03:56.119Z,27.77
2017-07-21T04:04:55.903Z,27.77
2017-07-21T04:05:55.614Z,27.74
2017-07-21T04:06:56.238Z,27.77
2017-07-21T04:07:55.987Z,27.67
2017-07-21T04:08:55.954Z,27.77
2017-07-21T04:09:56.054Z,27.59
2017-07-21T04:10:56.070Z,27.72
2017-07-21T04:11:56.098Z,27.72
2017-07-21T04:12:56.124Z,27.75
2017-07-21T04:13:56.147Z,27.7
2017-07-21T04:14:55.878Z,27.74
2017-07-21T04:15:55.902Z,27.74
2017-07-21T04:16:56.238Z,27.67
2017-07-21T04:17:55.965Z,27.62
2017-07-21T04:18:56.556Z,27.74
2017-07-21T04:19:56.017Z,27.66
2017-07-21T04:20:56.366Z,27.75
2017-07-21T04:21:56.074Z,27.59
2017-07-21T04:22:56.420Z,27.57
2017-07-21T04:23:56.705Z,27.67
2017-07-21T04:24:56.500Z,27.66
2017-07-21T04:25:56.195Z,27.62
2017-07-21T04:26:56.218Z,27.69
2017-07-21T04:27:56.596Z,27.74
2017-07-21T04:28:56.848Z,27.66
2017-07-21T04:29:56.310Z,27.72
2017-07-21T04:30:56.649Z,27.7
2017-07-21T04:31:56.688Z,27.63
2017-07-21T04:32:56.404Z,27.72
2017-07-21T04:33:56.985Z,27.69
2017-07-21T04:34:56.771Z,27.69
2017-07-21T04:35:56.483Z,27.7
2017-07-21T04:36:56.514Z,27.62
2017-07-21T04:37:56.855Z,27.66
2017-07-21T04:38:57.183Z,27.69
2017-07-21T04:39:56.918Z,27.72
2017-07-21T04:40:56.963Z,27.65
2017-07-21T04:41:56.660Z,27.62
2017-07-21T04:42:57.004Z,27.6
2017-07-21T04:43:57.025Z,27.55
2017-07-21T04:44:57.062Z,27.6
2017-07-21T04:45:57.090Z,27.49
2017-07-21T04:46:57.120Z,27.51
2017-07-21T04:47:56.853Z,27.62
2017-07-21T04:48:57.178Z,27.57
2017-07-21T04:49:57.210Z,27.55
2017-07-21T04:50:57.238Z,27.51
2017-07-21T04:51:56.952Z,27.51
2017-07-21T04:52:56.976Z,27.54
2017-07-21T04:53:57.014Z,27.46
2017-07-21T04:54:57.042Z,27.46
2017-07-21T04:55:56.755Z,27.44
2017-07-21T04:56:57.100Z,27.4
2017-07-21T04:57:57.438Z,27.41
2017-07-21T04:58:57.473Z,27.5
2017-07-21T04:59:57.194Z,27.54
2017-07-21T05:00:57.551Z,27.47
2017-07-21T05:01:57.556Z,27.5
2017-07-21T05:02:57.265Z,27.54
2017-07-21T05:03:57.605Z,27.5
2017-07-21T05:04:57.026Z,27.55
2017-07-21T05:05:57.359Z,27.55
2017-07-21T05:06:57.393Z,27.55
2017-07-21T05:07:57.725Z,27.47
2017-07-21T05:08:57.761Z,27.57
2017-07-21T05:09:57.479Z,27.57
2017-07-21T05:10:57.507Z,27.57
2017-07-21T05:11:57.549Z,27.5
2017-07-21T05:12:57.566Z,27.44
2017-07-21T05:13:57.595Z,27.46
2017-07-21T05:14:57.938Z,27.51
2017-07-21T05:15:57.657Z,27.49
2017-07-21T05:16:57.681Z,27.46
2017-07-21T05:17:58.023Z,27.4
2017-07-21T05:18:58.042Z,27.44
2017-07-21T05:19:57.782Z,27.36
2017-07-21T05:20:58.108Z,27.37
2017-07-21T05:21:58.129Z,27.41
2017-07-21T05:22:57.856Z,27.34
2017-07-21T05:23:57.570Z,27.37
2017-07-21T05:24:58.216Z,27.43
2017-07-21T05:25:58.252Z,27.47
2017-07-21T05:26:58.280Z,27.37
2017-07-21T05:27:57.689Z,27.37
2017-07-21T05:28:58.346Z,27.37
2017-07-21T05:29:58.043Z,27.37
2017-07-21T05:30:58.086Z,27.4
2017-07-21T05:31:58.422Z,27.39
2017-07-21T05:32:58.146Z,27.43
2017-07-21T05:33:58.487Z,27.31
2017-07-21T05:34:58.460Z,27.28
2017-07-21T05:35:57.920Z,27.43
2017-07-21T05:36:58.581Z,27.39
2017-07-21T05:37:58.605Z,27.34
2017-07-21T05:38:58.638Z,27.34
2017-07-21T05:39:58.601Z,27.43
2017-07-21T05:40:58.685Z,27.4
2017-07-21T05:41:58.423Z,27.36
2017-07-21T05:42:58.130Z,27.36
2017-07-21T05:43:58.160Z,27.36
2017-07-21T05:44:59.107Z,27.36
2017-07-21T05:45:58.828Z,27.34
2017-07-21T05:46:58.864Z,27.41
2017-07-21T05:47:58.893Z,27.4
2017-07-21T05:48:58.612Z,27.41
2017-07-21T05:49:58.900Z,27.4
2017-07-21T05:50:58.360Z,27.43
2017-07-21T05:51:58.701Z,27.44
2017-07-21T05:52:58.734Z,27.41
2017-07-21T05:53:58.763Z,27.39
2017-07-21T05:54:59.356Z,27.4
2017-07-21T05:55:59.125Z,27.39
2017-07-21T05:56:59.157Z,27.49
2017-07-21T05:57:59.186Z,27.49
2017-07-21T05:58:59.213Z,27.47
2017-07-21T05:59:58.924Z,27.47
2017-07-21T06:00:58.964Z,27.47
2017-07-21T06:01:59.314Z,27.46
2017-07-21T06:02:59.014Z,27.49
2017-07-21T06:03:59.047Z,27.41
2017-07-21T06:04:59.403Z,27.49
2017-07-21T06:05:59.442Z,27.5
2017-07-21T06:06:59.450Z,27.47
2017-07-21T06:07:59.167Z,27.44
2017-07-21T06:08:59.195Z,27.39
2017-07-21T06:09:59.180Z,27.46
2017-07-21T06:10:59.565Z,27.47
2017-07-21T06:11:59.594Z,27.46
2017-07-21T06:12:59.620Z,27.49
2017-07-21T06:13:59.647Z,27.51
2017-07-21T06:14:59.938Z,27.47
2017-07-21T06:15:59.399Z,27.47
2017-07-21T06:16:59.426Z,27.41
2017-07-21T06:17:59.141Z,27.47
2017-07-21T06:18:59.800Z,27.39
2017-07-21T06:20:00.089Z,27.44
2017-07-21T06:20:59.858Z,27.44
2017-07-21T06:21:59.882Z,27.47
2017-07-21T06:22:59.602Z,27.44
2017-07-21T06:23:59.949Z,27.43
2017-07-21T06:25:00.272Z,27.49
2017-07-21T06:26:00.013Z,27.49
2017-07-21T06:26:59.723Z,27.49
2017-07-21T06:27:59.743Z,27.54
2017-07-21T06:29:00.091Z,27.51
2017-07-21T06:30:00.117Z,27.51
2017-07-21T06:31:00.150Z,27.57
2017-07-21T06:31:59.555Z,27.59
2017-07-21T06:32:59.895Z,27.55
2017-07-21T06:33:59.924Z,27.51
2017-07-21T06:34:59.952Z,27.54
2017-07-21T06:35:59.981Z,27.47
2017-07-21T06:37:00.322Z,27.46
2017-07-21T06:38:00.351Z,27.44
2017-07-21T06:39:00.065Z,27.5
2017-07-21T06:40:00.413Z,27.47
2017-07-21T06:41:00.430Z,27.49
2017-07-21T06:42:00.159Z,27.46
2017-07-21T06:43:00.500Z,27.5
2017-07-21T06:44:00.536Z,27.51
2017-07-21T06:45:00.245Z,27.65
2017-07-21T06:46:00.218Z,27.49
2017-07-21T06:47:00.611Z,27.5
2017-07-21T06:48:00.331Z,27.54
2017-07-21T06:49:00.361Z,27.63
2017-07-21T06:50:00.693Z,27.47
2017-07-21T06:51:00.674Z,27.55
2017-07-21T06:52:00.446Z,27.49
2017-07-21T06:53:00.480Z,27.49
2017-07-21T06:54:00.506Z,27.47
2017-07-21T06:55:00.854Z,27.51
2017-07-21T06:56:00.826Z,27.57
2017-07-21T06:57:00.599Z,27.46
2017-07-21T06:58:00.619Z,27.46
2017-07-21T06:59:00.331Z,27.44
2017-07-21T07:00:00.993Z,27.47
2017-07-21T07:01:00.963Z,27.5
2017-07-21T07:02:01.051Z,27.54
2017-07-21T07:03:00.769Z,27.47
2017-07-21T07:04:00.809Z,27.51
2017-07-21T07:05:01.141Z,27.49
2017-07-21T07:06:01.110Z,27.47
2017-07-21T07:07:00.883Z,27.46
2017-07-21T07:08:00.916Z,27.5
2017-07-21T07:09:00.944Z,27.49
2017-07-21T07:10:00.974Z,27.62
2017-07-21T07:11:00.990Z,27.5
2017-07-21T07:12:01.346Z,27.51
2017-07-21T07:13:01.065Z,27.6
2017-07-21T07:14:00.787Z,27.49
2017-07-21T07:15:01.442Z,27.51
2017-07-21T07:16:01.451Z,27.5
2017-07-21T07:17:01.183Z,27.49
2017-07-21T07:18:00.901Z,27.47
2017-07-21T07:19:01.545Z,27.51
2017-07-21T07:20:01.621Z,27.49
2017-07-21T07:21:01.527Z,27.55
2017-07-21T07:22:01.319Z,27.5
2017-07-21T07:23:01.040Z,27.44
2017-07-21T07:24:01.688Z,27.5
2017-07-21T07:25:01.726Z,27.51
2017-07-21T07:26:02.009Z,27.5
2017-07-21T07:27:01.788Z,27.54
2017-07-21T07:28:01.817Z,27.5
2017-07-21T07:29:01.525Z,27.47
2017-07-21T07:30:01.867Z,27.57
2017-07-21T07:31:01.886Z,27.44
2017-07-21T07:32:01.924Z,27.54
2017-07-21T07:33:01.957Z,27.54
2017-07-21T07:34:01.990Z,27.51
2017-07-21T07:35:01.715Z,27.57
2017-07-21T07:36:01.983Z,27.49
2017-07-21T07:37:02.076Z,27.63
2017-07-21T07:38:01.478Z,27.47
2017-07-21T07:39:02.133Z,27.55
2017-07-21T07:40:01.859Z,27.47
2017-07-21T07:41:02.119Z,27.55
2017-07-21T07:42:01.908Z,27.62
2017-07-21T07:43:01.945Z,27.51
2017-07-21T07:44:01.974Z,27.6
2017-07-21T07:45:01.999Z,27.55
2017-07-21T07:46:02.583Z,27.6
2017-07-21T07:47:02.369Z,27.67
2017-07-21T07:48:02.101Z,27.62
2017-07-21T07:49:01.801Z,27.59
2017-07-21T07:50:02.143Z,27.62
2017-07-21T07:51:02.170Z,27.57
2017-07-21T07:52:01.885Z,27.57
2017-07-21T07:53:02.233Z,27.55
2017-07-21T07:54:02.574Z,27.65
2017-07-21T07:55:02.603Z,27.72
2017-07-21T07:56:02.328Z,27.66
2017-07-21T07:57:02.342Z,27.69
2017-07-21T07:58:02.382Z,27.65
2017-07-21T07:59:02.427Z,27.66
2017-07-21T08:00:02.435Z,27.6
2017-07-21T08:01:02.771Z,27.63
2017-07-21T08:02:02.502Z,27.62
2017-07-21T08:03:02.541Z,27.69
2017-07-21T08:04:02.558Z,27.67
2017-07-21T08:05:02.269Z,27.74
2017-07-21T08:06:02.920Z,27.65
2017-07-21T08:07:02.952Z,27.66
2017-07-21T08:08:02.981Z,27.65
2017-07-21T08:09:03.010Z,27.69
2017-07-21T08:10:03.038Z,27.69
2017-07-21T08:11:03.072Z,27.69
2017-07-21T08:12:03.109Z,27.69
2017-07-21T08:13:03.131Z,27.69
2017-07-21T08:14:02.854Z,27.65
2017-07-21T08:15:02.878Z,27.69
2017-07-21T08:16:02.908Z,27.72
2017-07-21T08:17:03.237Z,27.67
2017-07-21T08:18:02.961Z,27.78
2017-07-21T08:19:03.317Z,27.72
2017-07-21T08:20:03.342Z,27.72
2017-07-21T08:21:03.367Z,27.77
2017-07-21T08:22:03.093Z,27.79
2017-07-21T08:23:03.434Z,27.72
2017-07-21T08:24:03.459Z,27.75
2017-07-21T08:25:03.166Z,27.78
2017-07-21T08:26:03.505Z,27.79
2017-07-21T08:27:03.840Z,27.75
2017-07-21T08:28:03.578Z,27.75
2017-07-21T08:29:03.279Z,27.84
2017-07-21T08:30:03.337Z,27.78
2017-07-21T08:31:03.656Z,27.82
2017-07-21T08:32:03.622Z,27.82
2017-07-21T08:33:03.403Z,27.78
2017-07-21T08:34:03.440Z,27.87
2017-07-21T08:35:03.780Z,27.81
2017-07-21T08:36:03.496Z,27.85
2017-07-21T08:37:03.773Z,27.87
2017-07-21T08:38:03.857Z,27.79
2017-07-21T08:39:03.268Z,27.78
2017-07-21T08:40:03.600Z,27.81
2017-07-21T08:41:03.645Z,27.88
2017-07-21T08:42:04.234Z,27.88
2017-07-21T08:43:03.718Z,27.84
2017-07-21T08:44:03.723Z,27.79
2017-07-21T08:45:03.783Z,27.9
2017-07-21T08:46:04.096Z,27.88
2017-07-21T08:47:04.386Z,27.87
2017-07-21T08:48:04.154Z,27.96
2017-07-21T08:49:04.176Z,27.9
2017-07-21T08:50:03.900Z,27.88
2017-07-21T08:51:03.936Z,27.9
2017-07-21T08:52:04.218Z,27.9
2017-07-21T08:53:03.992Z,27.99
2017-07-21T08:54:04.382Z,27.99
2017-07-21T08:55:04.364Z,27.96
2017-07-21T08:56:04.394Z,27.97
2017-07-21T08:57:04.362Z,27.99
2017-07-21T08:58:04.476Z,28.02
2017-07-21T08:59:04.484Z,27.99
2017-07-21T09:00:04.185Z,27.93
2017-07-21T09:01:04.230Z,27.93
2017-07-21T09:02:04.242Z,27.96
2017-07-21T09:03:04.275Z,28.02
2017-07-21T09:04:04.632Z,28.06
2017-07-21T09:05:04.345Z,28.03
2017-07-21T09:06:04.717Z,28.07
2017-07-21T09:07:04.654Z,28
2017-07-21T09:08:04.450Z,28.07
2017-07-21T09:09:04.775Z,28.03
2017-07-21T09:10:04.808Z,28.07
2017-07-21T09:11:04.827Z,28.06
2017-07-21T09:12:04.493Z,28.17
2017-07-21T09:13:04.267Z,28.04
2017-07-21T09:14:04.616Z,28.06
2017-07-21T09:15:04.641Z,28.14
2017-07-21T09:16:04.356Z,28.18
2017-07-21T09:17:05.260Z,28.15
2017-07-21T09:18:05.042Z,28.14
2017-07-21T09:19:04.443Z,28.11
2017-07-21T09:20:05.097Z,28.14
2017-07-21T09:21:05.129Z,28.17
2017-07-21T09:22:04.850Z,28.21
2017-07-21T09:23:04.867Z,28.14
2017-07-21T09:24:05.217Z,28.17
2017-07-21T09:25:04.950Z,28.15
2017-07-21T09:26:05.276Z,28.18
2017-07-21T09:27:05.315Z,28.18
2017-07-21T09:28:05.023Z,28.21
2017-07-21T09:29:05.364Z,28.24
2017-07-21T09:30:05.399Z,28.22
2017-07-21T09:31:05.430Z,28.24
2017-07-21T09:32:05.146Z,28.21
2017-07-21T09:33:05.172Z,28.33
2017-07-21T09:34:05.209Z,28.29
2017-07-21T09:35:05.551Z,28.24
2017-07-21T09:36:05.580Z,28.27
2017-07-21T09:37:05.300Z,28.25
2017-07-21T09:38:05.631Z,28.36
2017-07-21T09:39:05.663Z,28.39
2017-07-21T09:40:05.389Z,28.31
2017-07-21T09:41:05.412Z,28.39
2017-07-21T09:42:05.128Z,28.41
2017-07-21T09:43:05.785Z,28.31
2017-07-21T09:44:05.821Z,28.33
2017-07-21T09:45:05.838Z,28.33
2017-07-21T09:46:05.873Z,28.37
2017-07-21T09:47:05.893Z,28.36
2017-07-21T09:48:05.624Z,28.33
2017-07-21T09:49:05.329Z,28.39
2017-07-21T09:50:05.676Z,28.41
2017-07-21T09:51:06.008Z,28.37
2017-07-21T09:52:05.733Z,28.37
2017-07-21T09:53:05.769Z,28.39
2017-07-21T09:54:06.101Z,28.39
2017-07-21T09:55:06.137Z,28.37
2017-07-21T09:56:06.167Z,28.37
2017-07-21T09:57:06.192Z,28.37
2017-07-21T09:58:06.223Z,28.36
2017-07-21T09:59:05.946Z,28.39
2017-07-21T10:00:05.985Z,28.48
2017-07-21T10:01:06.308Z,28.4
2017-07-21T10:02:06.060Z,28.54
2017-07-21T10:03:06.314Z,28.39
2017-07-21T10:04:06.403Z,28.43
2017-07-21T10:05:05.811Z,28.56
2017-07-21T10:06:06.470Z,28.54
2017-07-21T10:07:06.492Z,28.49
2017-07-21T10:08:06.768Z,28.51
2017-07-21T10:09:06.554Z,28.52
2017-07-21T10:10:06.584Z,28.54
2017-07-21T10:11:05.986Z,28.43
2017-07-21T10:12:06.329Z,28.55
2017-07-21T10:13:06.939Z,28.54
2017-07-21T10:14:06.391Z,28.59
2017-07-21T10:15:06.112Z,28.56
2017-07-21T10:16:06.144Z,28.58
2017-07-21T10:17:06.475Z,28.66
2017-07-21T10:18:07.118Z,28.59
2017-07-21T10:19:06.839Z,28.64
2017-07-21T10:20:06.569Z,28.68
2017-07-21T10:21:06.599Z,28.66
2017-07-21T10:22:06.953Z,28.71
2017-07-21T10:23:06.912Z,28.67
2017-07-21T10:24:07.006Z,28.68
2017-07-21T10:25:07.027Z,28.74
2017-07-21T10:26:06.748Z,28.78
2017-07-21T10:27:06.772Z,28.74
2017-07-21T10:28:07.146Z,28.74
2017-07-21T10:29:06.833Z,28.74
2017-07-21T10:30:06.578Z,28.8
2017-07-21T10:31:06.931Z,28.78
2017-07-21T10:32:06.928Z,28.85
2017-07-21T10:33:07.212Z,28.89
2017-07-21T10:34:07.303Z,28.89
2017-07-21T10:35:07.056Z,28.89
2017-07-21T10:36:07.046Z,28.9
2017-07-21T10:37:07.078Z,28.88
2017-07-21T10:38:07.381Z,28.81
2017-07-21T10:39:07.134Z,28.86
2017-07-21T10:40:07.472Z,28.93
2017-07-21T10:41:07.502Z,28.86
2017-07-21T10:42:07.546Z,28.88
2017-07-21T10:43:07.509Z,28.89
2017-07-21T10:44:07.286Z,28.89
2017-07-21T10:45:07.055Z,28.86
2017-07-21T10:46:07.030Z,28.86
2017-07-21T10:47:07.681Z,28.88
2017-07-21T10:48:07.969Z,28.86
2017-07-21T10:49:07.746Z,28.89
2017-07-21T10:50:07.784Z,28.89
2017-07-21T10:51:07.508Z,28.89
2017-07-21T10:52:07.525Z,28.86
2017-07-21T10:53:07.806Z,28.88
2017-07-21T10:54:07.893Z,28.93
2017-07-21T10:55:07.924Z,28.9
2017-07-21T10:56:07.639Z,28.92
2017-07-21T10:57:07.986Z,28.96
2017-07-21T10:58:08.274Z,29
2017-07-21T10:59:08.060Z,29
2017-07-21T11:00:07.756Z,29.05
2017-07-21T11:01:08.117Z,29.02
2017-07-21T11:02:07.517Z,28.98
2017-07-21T11:03:08.167Z,29.04
2017-07-21T11:04:08.190Z,29.06
2017-07-21T11:05:08.236Z,29.09
2017-07-21T11:06:07.944Z,29.05
2017-07-21T11:07:08.294Z,28.95
2017-07-21T11:08:08.006Z,28.9
2017-07-21T11:09:08.339Z,29.06
2017-07-21T11:10:08.376Z,28.93
2017-07-21T11:11:08.408Z,28.98
2017-07-21T11:12:08.438Z,29.05
2017-07-21T11:13:08.462Z,29.08
2017-07-21T11:14:08.500Z,29.05
2017-07-21T11:15:08.217Z,29.05
2017-07-21T11:16:07.939Z,29.05
2017-07-21T11:17:07.969Z,28.98
2017-07-21T11:18:08.002Z,29.02
2017-07-21T11:19:08.334Z,29.15
2017-07-21T11:20:08.700Z,29.05
2017-07-21T11:21:08.397Z,29.05
2017-07-21T11:22:08.734Z,29.09
2017-07-21T11:23:08.771Z,29.12
2017-07-21T11:24:08.810Z,29.14
2017-07-21T11:25:08.840Z,29.14
2017-07-21T11:26:08.552Z,29.14
2017-07-21T11:27:08.885Z,29.15
2017-07-21T11:28:08.935Z,29.14
2017-07-21T11:29:08.954Z,29.14
2017-07-21T11:30:08.986Z,29.16
2017-07-21T11:31:09.002Z,29.21
2017-07-21T11:32:09.042Z,29.18
2017-07-21T11:33:09.067Z,29.09
2017-07-21T11:34:09.109Z,29.09
2017-07-21T11:35:08.825Z,29.21
2017-07-21T11:36:08.849Z,29.26
2017-07-21T11:37:08.886Z,29.21
2017-07-21T11:38:08.915Z,29.26
2017-07-21T11:39:09.250Z,29.3
2017-07-21T11:40:09.280Z,29.26
2017-07-21T11:41:09.013Z,29.24
2017-07-21T11:42:08.735Z,29.27
2017-07-21T11:43:09.375Z,29.24
2017-07-21T11:44:09.404Z,29.28
2017-07-21T11:45:09.132Z,29.3
2017-07-21T11:46:08.845Z,29.33
2017-07-21T11:47:09.503Z,29.37
2017-07-21T11:48:09.523Z,29.36
2017-07-21T11:49:09.564Z,29.46
2017-07-21T11:50:09.597Z,29.49
2017-07-21T11:51:09.317Z,29.63
2017-07-21T11:52:09.335Z,29.68
2017-07-21T11:53:09.679Z,29.74
2017-07-21T11:54:09.410Z,29.87
2017-07-21T11:55:09.433Z,30.02
2017-07-21T11:56:09.774Z,29.97
2017-07-21T11:57:09.803Z,30.15
2017-07-21T11:58:09.213Z,30.15
2017-07-21T11:59:10.120Z,30.16
2017-07-21T12:00:09.893Z,30.32
2017-07-21T12:01:09.926Z,30.37
2017-07-21T12:02:09.963Z,30.35
2017-07-21T12:03:09.680Z,30.46
2017-07-21T12:04:09.975Z,30.62
2017-07-21T12:05:09.745Z,30.61
2017-07-21T12:06:10.090Z,30.67
2017-07-21T12:07:09.808Z,30.73
2017-07-21T12:08:10.148Z,30.72
2017-07-21T12:09:10.120Z,30.89
2017-07-21T12:10:10.216Z,30.92
2017-07-21T12:11:09.938Z,30.91
2017-07-21T12:12:09.959Z,31.04
2017-07-21T12:13:09.692Z,31.1
2017-07-21T12:14:10.637Z,31.21
2017-07-21T12:15:10.066Z,31.29
2017-07-21T12:16:10.099Z,31.38
2017-07-21T12:17:10.440Z,31.54
2017-07-21T12:18:10.466Z,31.63
2017-07-21T12:19:10.448Z,31.7
2017-07-21T12:20:10.538Z,31.84
2017-07-21T12:21:10.575Z,31.92
2017-07-21T12:22:10.291Z,31.85
2017-07-21T12:23:10.332Z,31.95
2017-07-21T12:24:10.619Z,32
2017-07-21T12:25:10.125Z,32.11
2017-07-21T12:26:10.732Z,32.15
2017-07-21T12:27:10.772Z,32.13
2017-07-21T12:28:10.496Z,32.32
2017-07-21T12:29:11.094Z,32.43
2017-07-21T12:30:10.863Z,32.5
2017-07-21T12:31:10.898Z,32.56
2017-07-21T12:32:10.932Z,32.62
2017-07-21T12:33:10.663Z,32.84
2017-07-21T12:34:11.245Z,32.89
2017-07-21T12:35:10.727Z,32.84
2017-07-21T12:36:10.754Z,32.97
2017-07-21T12:37:11.143Z,33.06
2017-07-21T12:38:11.140Z,33.15
2017-07-21T12:39:11.164Z,33.04
2017-07-21T12:40:11.205Z,33.23
2017-07-21T12:41:11.243Z,33.14
2017-07-21T12:42:11.280Z,33.19
2017-07-21T12:43:10.998Z,33.14
2017-07-21T12:44:11.354Z,33.11
2017-07-21T12:45:11.067Z,33.15
2017-07-21T12:46:11.087Z,33.26
2017-07-21T12:47:11.131Z,33.06
2017-07-21T12:48:11.478Z,33.06
2017-07-21T12:49:11.201Z,33
2017-07-21T12:50:11.545Z,32.96
2017-07-21T12:51:11.576Z,33.04
2017-07-21T12:52:11.612Z,32.96
2017-07-21T12:53:11.641Z,32.89
2017-07-21T12:54:11.682Z,32.89
2017-07-21T12:55:11.719Z,32.79